createdAt,value
2018-03-27T00:06:52.264Z,0
2018-03-27T00:13:52.687Z,-0.1
2018-03-27T00:21:53.221Z,-0.3
2018-03-27T00:29:53.699Z,-0.4
2018-03-27T00:30:53.746Z,-0.3
2018-03-27T00:32:53.882Z,-0.4
2018-03-27T00:45:54.644Z,-0.5
2018-03-27T00:52:55.065Z,-0.6
2018-03-27T00:59:55.499Z,-0.8
2018-03-27T01:07:55.987Z,-0.9
2018-03-27T01:09:56.111Z,-0.8
2018-03-27T01:13:56.362Z,-0.9
2018-03-27T01:35:57.714Z,-1
2018-03-27T01:43:58.242Z,-1.1
2018-03-27T01:44:58.266Z,-1
2018-03-27T01:45:58.324Z,-1.1
2018-03-27T01:55:58.928Z,-1.3
2018-03-27T02:05:59.588Z,-1.4
2018-03-27T02:14:00.075Z,-1.5
2018-03-27T02:23:01.370Z,-1.6
2018-03-27T02:35:01.320Z,-1.8
2018-03-27T02:38:01.505Z,-1.6
2018-03-27T02:39:01.588Z,-1.8
2018-03-27T02:55:02.593Z,-1.9
2018-03-27T02:56:02.667Z,-1.8
2018-03-27T02:58:02.787Z,-1.9
2018-03-27T03:13:03.647Z,-2
2018-03-27T03:27:04.517Z,-2.1
2018-03-27T03:41:05.425Z,-2.2
2018-03-27T03:54:06.201Z,-2.4
2018-03-27T04:14:07.619Z,-2.2
2018-03-27T04:15:07.659Z,-2.4
2018-03-27T04:17:07.781Z,-2.2
2018-03-27T04:52:09.996Z,-2.4
2018-03-27T04:53:10.038Z,-2.2
2018-03-27T05:00:10.465Z,-2.4
2018-03-27T05:03:10.609Z,-2.2
2018-03-27T05:04:10.674Z,-2.4
2018-03-27T05:05:10.734Z,-2.2
2018-03-27T05:06:10.789Z,-2.4
2018-03-27T05:09:10.979Z,-2.2
2018-03-27T05:15:11.392Z,-2.1
2018-03-27T05:22:11.822Z,-2
2018-03-27T05:23:11.877Z,-2.1
2018-03-27T05:24:11.939Z,-2
2018-03-27T05:30:12.304Z,-1.9
2018-03-27T05:34:12.529Z,-1.8
2018-03-27T05:38:12.748Z,-1.6
2018-03-27T05:41:12.952Z,-1.5
2018-03-27T05:45:13.201Z,-1.4
2018-03-27T05:49:13.469Z,-1.3
2018-03-27T05:52:13.612Z,-1.1
2018-03-27T05:56:13.849Z,-1
2018-03-27T05:59:14.052Z,-0.9
2018-03-27T06:02:14.228Z,-0.8
2018-03-27T06:05:14.511Z,-0.6
2018-03-27T06:08:14.654Z,-0.5
2018-03-27T06:09:14.717Z,-0.4
2018-03-27T06:12:14.883Z,-0.3
2018-03-27T06:15:15.119Z,-0.1
2018-03-27T06:17:15.194Z,0
2018-03-27T06:19:15.313Z,0.1
2018-03-27T06:21:15.447Z,0.3
2018-03-27T06:23:15.519Z,0.4
2018-03-27T06:25:15.669Z,0.5
2018-03-27T06:26:15.702Z,0.6
2018-03-27T06:28:15.837Z,0.8
2018-03-27T06:30:16.191Z,0.9
2018-03-27T06:31:16.049Z,1
2018-03-27T06:33:16.134Z,1.1
2018-03-27T06:34:16.198Z,1.3
2018-03-27T06:36:16.380Z,1.4
2018-03-27T06:37:16.443Z,1.5
2018-03-27T06:38:16.499Z,1.6
2018-03-27T06:39:16.537Z,1.8
2018-03-27T06:41:16.626Z,1.9
2018-03-27T06:42:16.712Z,2
2018-03-27T06:43:16.744Z,2.1
2018-03-27T06:44:16.815Z,2.4
2018-03-27T06:45:16.928Z,2.9
2018-03-27T06:46:17.001Z,3.5
2018-03-27T06:47:16.994Z,4.1
2018-03-27T06:48:17.057Z,4.6
2018-03-27T06:49:17.112Z,5.2
2018-03-27T06:50:17.198Z,5.9
2018-03-27T06:51:17.284Z,6.2
2018-03-27T06:52:17.363Z,6.6
2018-03-27T06:53:17.418Z,6.9
2018-03-27T06:54:17.475Z,6.7
2018-03-27T06:55:17.648Z,6.5
2018-03-27T06:56:17.600Z,6.2
2018-03-27T06:57:17.658Z,6.4
2018-03-27T06:58:17.674Z,6.7
2018-03-27T06:59:17.763Z,6.9
2018-03-27T07:00:17.915Z,7.1
2018-03-27T07:01:17.875Z,7.5
2018-03-27T07:02:18.002Z,8
2018-03-27T07:03:18.020Z,8.6
2018-03-27T07:04:18.071Z,8.9
2018-03-27T07:05:18.261Z,9
2018-03-27T07:08:18.322Z,9.3
2018-03-27T07:09:18.400Z,9.6
2018-03-27T07:10:18.498Z,10
2018-03-27T07:11:18.498Z,10.4
2018-03-27T07:12:18.537Z,10.6
2018-03-27T07:13:18.633Z,10.8
2018-03-27T07:14:18.699Z,10.6
2018-03-27T07:15:18.798Z,10.4
2018-03-27T07:17:18.837Z,10.5
2018-03-27T07:18:18.894Z,10.3
2018-03-27T07:19:18.953Z,10
2018-03-27T07:20:19.284Z,10.4
2018-03-27T07:21:19.091Z,11
2018-03-27T07:22:19.148Z,11.9
2018-03-27T07:23:19.202Z,12.6
2018-03-27T07:24:19.334Z,13
2018-03-27T07:25:19.387Z,12.6
2018-03-27T07:26:19.428Z,12
2018-03-27T07:27:19.490Z,11.5
2018-03-27T07:28:19.517Z,11.4
2018-03-27T07:31:19.726Z,11.1
2018-03-27T07:32:19.750Z,10.8
2018-03-27T07:33:19.821Z,10.4
2018-03-27T07:36:20.005Z,10.6
2018-03-27T07:37:20.090Z,11.1
2018-03-27T07:38:20.161Z,11.8
2018-03-27T07:39:20.191Z,11.9
2018-03-27T07:40:20.330Z,12.1
2018-03-27T07:41:20.326Z,12.4
2018-03-27T07:42:20.412Z,12.6
2018-03-27T07:43:20.471Z,13
2018-03-27T07:44:20.556Z,13.5
2018-03-27T07:45:20.649Z,14
2018-03-27T07:46:20.672Z,14.5
2018-03-27T07:47:20.679Z,14.7
2018-03-27T07:49:20.798Z,14.9
2018-03-27T07:50:20.958Z,15.3
2018-03-27T07:51:20.958Z,15.4
2018-03-27T07:52:21.023Z,15.5
2018-03-27T07:53:21.088Z,15.4
2018-03-27T07:54:21.140Z,15.6
2018-03-27T07:55:21.283Z,16.3
2018-03-27T07:56:21.254Z,16.9
2018-03-27T07:57:21.322Z,17.5
2018-03-27T07:58:21.398Z,18.3
2018-03-27T07:59:21.463Z,18.9
2018-03-27T08:00:21.723Z,19.5
2018-03-27T08:01:21.536Z,20.1
2018-03-27T08:02:21.614Z,20.6
2018-03-27T08:03:21.657Z,20.9
2018-03-27T08:04:21.723Z,21.1
2018-03-27T08:05:21.855Z,21.5
2018-03-27T08:06:21.852Z,22
2018-03-27T08:07:21.899Z,22.5
2018-03-27T08:08:21.958Z,22.9
2018-03-27T08:10:22.146Z,24
2018-03-27T08:11:22.155Z,24.6
2018-03-27T08:12:22.870Z,25
2018-03-27T08:13:22.288Z,25.4
2018-03-27T08:14:22.398Z,25.9
2018-03-27T08:15:22.502Z,26.1
2018-03-27T08:16:22.508Z,26.5
2018-03-27T08:17:22.557Z,26.8
2018-03-27T08:18:23.004Z,27.1
2018-03-27T08:19:22.698Z,27.4
2018-03-27T08:20:22.738Z,27.6
2018-03-27T08:21:22.761Z,27.9
2018-03-27T08:22:22.822Z,28.1
2018-03-27T08:23:22.911Z,28.4
2018-03-27T08:24:23.027Z,28.6
2018-03-27T08:25:23.072Z,28.9
2018-03-27T08:26:23.068Z,29.1
2018-03-27T08:27:23.141Z,29.3
2018-03-27T08:28:23.204Z,29.5
2018-03-27T08:29:23.288Z,29.6
2018-03-27T08:30:23.369Z,29.9
2018-03-27T08:31:23.387Z,30
2018-03-27T08:32:23.465Z,30.3
2018-03-27T08:33:23.542Z,30.4
2018-03-27T08:34:23.609Z,30.6
2018-03-27T08:35:23.745Z,30.8
2018-03-27T08:36:23.808Z,31
2018-03-27T08:37:23.790Z,31.1
2018-03-27T08:38:23.852Z,31.4
2018-03-27T08:39:23.920Z,31.5
2018-03-27T08:40:23.991Z,31.6
2018-03-27T08:41:24.043Z,31.9
2018-03-27T08:42:24.069Z,32
2018-03-27T08:43:24.182Z,32.2
2018-03-27T08:44:24.232Z,32.5
2018-03-27T08:45:24.281Z,32.6
2018-03-27T08:46:24.348Z,32.7
2018-03-27T08:47:24.405Z,32.9
2018-03-27T08:48:24.449Z,33
2018-03-27T08:54:24.819Z,33.1
2018-03-27T08:55:24.861Z,33.2
2018-03-27T08:56:24.919Z,33.4
2018-03-27T08:57:24.982Z,33.5
2018-03-27T08:58:25.041Z,33.6
2018-03-27T08:59:25.150Z,33.7
2018-03-27T09:00:25.252Z,33.9
2018-03-27T09:01:25.243Z,34
2018-03-27T09:04:25.455Z,34.1
2018-03-27T09:06:25.549Z,34.2
2018-03-27T09:08:25.699Z,34.5
2018-03-27T09:09:25.752Z,34.6
2018-03-27T09:10:25.855Z,34.9
2018-03-27T09:11:25.872Z,35
2018-03-27T09:13:25.990Z,35.1
2018-03-27T09:14:26.031Z,35
2018-03-27T09:18:26.321Z,34.9
2018-03-27T09:19:26.403Z,34.7
2018-03-27T09:23:26.625Z,34.6
2018-03-27T09:26:26.814Z,34.7
2018-03-27T09:27:26.876Z,35
2018-03-27T09:28:26.935Z,35.2
2018-03-27T09:29:26.992Z,35.4
2018-03-27T09:30:27.100Z,35.6
2018-03-27T09:31:27.131Z,35.7
2018-03-27T09:32:27.189Z,34.9
2018-03-27T09:33:27.244Z,34
2018-03-27T09:34:27.320Z,34.6
2018-03-27T09:35:27.381Z,34.9
2018-03-27T09:36:27.437Z,35
2018-03-27T09:37:27.509Z,35.2
2018-03-27T09:38:27.550Z,35.5
2018-03-27T09:39:27.590Z,35.6
2018-03-27T09:40:27.699Z,36
2018-03-27T09:41:27.701Z,36.1
2018-03-27T09:42:27.776Z,36.4
2018-03-27T09:43:27.814Z,36.5
2018-03-27T09:44:27.897Z,36.6
2018-03-27T09:46:28.005Z,36.7
2018-03-27T09:47:28.403Z,37
2018-03-27T09:48:28.125Z,37.4
2018-03-27T09:49:28.227Z,37.6
2018-03-27T09:50:28.257Z,37.7
2018-03-27T09:51:28.384Z,38
2018-03-27T09:52:28.427Z,37.6
2018-03-27T09:53:28.477Z,36.2
2018-03-27T09:54:28.576Z,34
2018-03-27T09:55:28.827Z,34.5
2018-03-27T09:56:28.621Z,35.2
2018-03-27T09:57:28.678Z,35.9
2018-03-27T09:58:28.810Z,36.4
2018-03-27T09:59:28.896Z,36.7
2018-03-27T10:00:28.935Z,37.2
2018-03-27T10:01:28.944Z,36.7
2018-03-27T10:02:28.989Z,36.6
2018-03-27T10:03:29.052Z,37.1
2018-03-27T10:04:29.191Z,37.5
2018-03-27T10:05:29.274Z,37.7
2018-03-27T10:06:29.250Z,37.9
2018-03-27T10:07:29.346Z,38.1
2018-03-27T10:08:29.418Z,38.4
2018-03-27T10:09:29.466Z,38.5
2018-03-27T10:10:29.607Z,38.6
2018-03-27T10:11:29.595Z,38.9
2018-03-27T10:13:29.720Z,38.7
2018-03-27T10:14:29.853Z,38.6
2018-03-27T10:15:29.892Z,38.5
2018-03-27T10:16:29.928Z,38.4
2018-03-27T10:17:29.978Z,38.5
2018-03-27T10:18:30.019Z,38.6
2018-03-27T10:19:30.130Z,38.7
2018-03-27T10:20:30.206Z,39
2018-03-27T10:21:30.212Z,39.2
2018-03-27T10:22:30.271Z,39.5
2018-03-27T10:23:30.335Z,39.7
2018-03-27T10:24:30.396Z,40
2018-03-27T10:25:30.503Z,40.1
2018-03-27T10:26:30.484Z,40.2
2018-03-27T10:27:30.590Z,40.4
2018-03-27T10:28:30.633Z,40.6
2018-03-27T10:29:31.132Z,40.8
2018-03-27T10:30:30.784Z,40.9
2018-03-27T10:31:30.797Z,41
2018-03-27T10:32:30.908Z,41.1
2018-03-27T10:33:30.980Z,41.2
2018-03-27T10:34:30.968Z,41.4
2018-03-27T10:35:31.285Z,41.6
2018-03-27T10:37:31.353Z,40.5
2018-03-27T10:38:31.527Z,38
2018-03-27T10:39:31.538Z,37.7
2018-03-27T10:40:31.552Z,38.5
2018-03-27T10:41:31.638Z,39.2
2018-03-27T10:42:31.704Z,39.9
2018-03-27T10:43:31.760Z,40.5
2018-03-27T10:44:31.782Z,41
2018-03-27T10:45:31.900Z,41.4
2018-03-27T10:46:31.901Z,41.7
2018-03-27T10:47:31.983Z,42.1
2018-03-27T10:48:32.029Z,42.2
2018-03-27T10:49:32.125Z,42.4
2018-03-27T10:51:32.254Z,42.2
2018-03-27T10:53:32.387Z,42.4
2018-03-27T10:54:32.469Z,42.6
2018-03-27T10:55:32.498Z,42.7
2018-03-27T10:56:32.600Z,42.9
2018-03-27T10:57:32.593Z,43
2018-03-27T10:59:32.737Z,43.1
2018-03-27T11:00:32.866Z,43.3
2018-03-27T11:01:32.873Z,43.4
2018-03-27T11:03:32.992Z,43.5
2018-03-27T11:04:33.053Z,43.6
2018-03-27T11:05:33.118Z,43.9
2018-03-27T11:06:33.194Z,44
2018-03-27T11:07:33.242Z,44.1
2018-03-27T11:08:33.265Z,44.2
2018-03-27T11:09:33.393Z,44.5
2018-03-27T11:10:33.423Z,44.4
2018-03-27T11:15:33.763Z,44.2
2018-03-27T11:16:33.755Z,44
2018-03-27T11:17:33.853Z,43.9
2018-03-27T11:19:33.934Z,44
2018-03-27T11:20:34.013Z,44.1
2018-03-27T11:21:34.114Z,44.2
2018-03-27T11:23:34.193Z,44.5
2018-03-27T11:24:34.357Z,44.6
2018-03-27T11:25:34.348Z,44.7
2018-03-27T11:26:34.407Z,45
2018-03-27T11:27:34.465Z,45.1
2018-03-27T11:28:34.507Z,45.4
2018-03-27T11:29:34.562Z,45.6
2018-03-27T11:30:34.682Z,45.8
2018-03-27T11:31:34.694Z,45.9
2018-03-27T11:35:34.934Z,45.4
2018-03-27T11:36:35.032Z,44.5
2018-03-27T11:37:35.110Z,43
2018-03-27T11:38:35.113Z,40.1
2018-03-27T11:39:35.209Z,38
2018-03-27T11:40:35.276Z,36.1
2018-03-27T11:41:35.330Z,34.6
2018-03-27T11:42:35.425Z,33.4
2018-03-27T11:43:35.464Z,33.6
2018-03-27T11:44:35.484Z,34
2018-03-27T11:45:35.613Z,35.5
2018-03-27T11:46:35.608Z,36.2
2018-03-27T11:47:35.710Z,37.2
2018-03-27T11:48:35.772Z,38
2018-03-27T11:49:35.830Z,38.4
2018-03-27T11:50:35.888Z,38.6
2018-03-27T11:51:35.954Z,38.7
2018-03-27T11:52:36.022Z,39.1
2018-03-27T11:53:36.040Z,39.4
2018-03-27T11:54:36.167Z,39.7
2018-03-27T11:55:36.206Z,40
2018-03-27T11:56:36.275Z,40.4
2018-03-27T11:57:36.331Z,40.9
2018-03-27T11:58:36.392Z,41.1
2018-03-27T11:59:36.450Z,41.2
2018-03-27T12:00:36.540Z,41
2018-03-27T12:01:36.563Z,41.2
2018-03-27T12:02:36.606Z,41.4
2018-03-27T12:03:36.705Z,41.6
2018-03-27T12:05:36.785Z,41.9
2018-03-27T12:06:36.878Z,42.2
2018-03-27T12:07:36.910Z,42.6
2018-03-27T12:08:37.006Z,43
2018-03-27T12:09:37.034Z,43.1
2018-03-27T12:10:37.143Z,42.7
2018-03-27T12:11:37.149Z,42.5
2018-03-27T12:12:37.222Z,42.2
2018-03-27T12:13:37.319Z,42
2018-03-27T12:14:37.405Z,40.5
2018-03-27T12:15:37.433Z,38.2
2018-03-27T12:16:37.500Z,36.4
2018-03-27T12:17:37.558Z,34.7
2018-03-27T12:18:37.651Z,33.4
2018-03-27T12:19:37.639Z,32.4
2018-03-27T12:20:37.706Z,32.9
2018-03-27T12:21:37.765Z,34.4
2018-03-27T12:22:37.826Z,34.7
2018-03-27T12:23:37.906Z,34.9
2018-03-27T12:24:37.954Z,35.2
2018-03-27T12:25:38.012Z,33.6
2018-03-27T12:26:38.080Z,32.1
2018-03-27T12:27:38.139Z,30.8
2018-03-27T12:28:38.201Z,29.6
2018-03-27T12:29:38.312Z,28.6
2018-03-27T12:30:38.421Z,27.6
2018-03-27T12:31:38.430Z,26.9
2018-03-27T12:32:38.495Z,26.2
2018-03-27T12:33:38.569Z,25.9
2018-03-27T12:34:38.610Z,25.5
2018-03-27T12:35:38.667Z,24.9
2018-03-27T12:36:38.736Z,24.3
2018-03-27T12:37:38.793Z,23.5
2018-03-27T12:38:38.852Z,22.9
2018-03-27T12:39:38.939Z,22.5
2018-03-27T12:40:38.983Z,23.5
2018-03-27T12:41:39.065Z,25.8
2018-03-27T12:42:39.124Z,27.5
2018-03-27T12:43:39.159Z,26.9
2018-03-27T12:44:39.230Z,26.6
2018-03-27T12:45:39.300Z,27.6
2018-03-27T12:46:39.312Z,28.5
2018-03-27T12:47:39.426Z,28.3
2018-03-27T12:48:39.429Z,27.2
2018-03-27T12:49:39.544Z,26.5
2018-03-27T12:50:39.600Z,25.8
2018-03-27T12:51:39.612Z,24.9
2018-03-27T12:52:39.689Z,24.3
2018-03-27T12:53:39.747Z,23.9
2018-03-27T12:54:39.804Z,23.3
2018-03-27T12:55:39.873Z,22.8
2018-03-27T12:56:39.918Z,22.2
2018-03-27T12:57:39.986Z,21.8
2018-03-27T12:58:40.058Z,21.2
2018-03-27T12:59:40.154Z,20.9
2018-03-27T13:00:40.204Z,20.5
2018-03-27T13:01:40.250Z,20.3
2018-03-27T13:02:40.596Z,20
2018-03-27T13:03:40.409Z,19.9
2018-03-27T13:05:40.558Z,19.8
2018-03-27T13:07:40.646Z,20
2018-03-27T13:08:40.666Z,20.5
2018-03-27T13:09:40.737Z,21.2
2018-03-27T13:10:40.796Z,21.8
2018-03-27T13:11:40.852Z,22
2018-03-27T13:12:40.907Z,21.6
2018-03-27T13:13:41.029Z,21.2
2018-03-27T13:14:41.037Z,21
2018-03-27T13:15:41.142Z,20.8
2018-03-27T13:16:41.187Z,20.6
2018-03-27T13:17:41.317Z,20.4
2018-03-27T13:18:41.292Z,20.5
2018-03-27T13:19:41.393Z,20.8
2018-03-27T13:20:41.467Z,21.1
2018-03-27T13:21:41.505Z,21.2
2018-03-27T13:22:41.571Z,21
2018-03-27T13:23:41.629Z,20.6
2018-03-27T13:24:41.717Z,20.3
2018-03-27T13:25:41.758Z,19.9
2018-03-27T13:26:41.837Z,19.6
2018-03-27T13:27:41.872Z,19.4
2018-03-27T13:28:41.947Z,19.1
2018-03-27T13:29:42.004Z,19
2018-03-27T13:30:42.112Z,18.9
2018-03-27T13:31:42.093Z,18.8
2018-03-27T13:34:42.330Z,18.9
2018-03-27T13:36:42.412Z,18.8
2018-03-27T13:38:42.549Z,19
2018-03-27T13:39:42.631Z,19.8
2018-03-27T13:40:42.682Z,20.8
2018-03-27T13:41:42.707Z,22.6
2018-03-27T13:42:42.765Z,23.7
2018-03-27T13:43:42.845Z,22.8
2018-03-27T13:44:42.879Z,22
2018-03-27T13:45:43.008Z,21.4
2018-03-27T13:46:43.023Z,20.9
2018-03-27T13:47:43.074Z,20.6
2018-03-27T13:48:43.122Z,20.5
2018-03-27T13:49:43.230Z,22.1
2018-03-27T13:50:43.264Z,21.5
2018-03-27T13:51:43.315Z,21
2018-03-27T13:52:43.439Z,21.1
2018-03-27T13:53:44.113Z,22.2
2018-03-27T13:54:43.511Z,23.7
2018-03-27T13:55:43.609Z,24.7
2018-03-27T13:57:43.749Z,23.5
2018-03-27T13:58:43.811Z,22.5
2018-03-27T13:59:43.813Z,21.6
2018-03-27T14:00:43.891Z,21
2018-03-27T14:01:43.925Z,20.6
2018-03-27T14:02:43.986Z,20.3
2018-03-27T14:03:44.059Z,19.8
2018-03-27T14:04:44.117Z,19.5
2018-03-27T14:05:44.172Z,19.3
2018-03-27T14:06:44.278Z,19
2018-03-27T14:07:44.364Z,19.1
2018-03-27T14:09:44.468Z,19.3
2018-03-27T14:10:44.503Z,20.5
2018-03-27T14:11:44.582Z,21.8
2018-03-27T14:12:44.661Z,21.2
2018-03-27T14:13:44.709Z,20.9
2018-03-27T14:14:44.768Z,21.4
2018-03-27T14:15:44.890Z,21.9
2018-03-27T14:16:44.890Z,23.1
2018-03-27T14:17:44.957Z,24.4
2018-03-27T14:18:45.024Z,25.3
2018-03-27T14:19:45.079Z,25.9
2018-03-27T14:20:45.136Z,25
2018-03-27T14:21:45.200Z,24
2018-03-27T14:22:45.277Z,24.5
2018-03-27T14:23:45.321Z,24.7
2018-03-27T15:18:59.326Z,16.4
2018-03-27T15:19:45.630Z,16.5
2018-03-27T15:21:45.085Z,16.4
2018-03-27T15:22:45.213Z,16.3
2018-03-27T15:23:45.411Z,16.1
2018-03-27T15:25:45.519Z,16.3
2018-03-27T15:26:45.607Z,16.4
2018-03-27T15:29:45.841Z,16.5
2018-03-27T15:30:45.937Z,16.8
2018-03-27T15:31:46.104Z,16.9
2018-03-27T15:37:46.654Z,16.3
2018-03-27T15:38:46.748Z,16.1
2018-03-27T15:39:46.764Z,16
2018-03-27T15:41:46.829Z,15.9
2018-03-27T15:43:46.927Z,15.8
2018-03-27T15:45:47.020Z,15.5
2018-03-27T15:46:47.057Z,15.4
2018-03-27T15:47:47.087Z,15.3
2018-03-27T15:48:47.169Z,15.1
2018-03-27T15:49:47.173Z,15
2018-03-27T15:50:47.213Z,14.7
2018-03-27T15:51:47.292Z,14.6
2018-03-27T15:52:47.339Z,14.5
2018-03-27T15:53:47.359Z,14.4
2018-03-27T15:54:47.388Z,14.3
2018-03-27T15:55:47.457Z,14.1
2018-03-27T15:56:47.446Z,14
2018-03-27T15:57:47.477Z,13.9
2018-03-27T15:58:47.506Z,13.6
2018-03-27T16:00:47.636Z,13.5
2018-03-27T16:01:47.622Z,13.4
2018-03-27T16:04:47.835Z,13.3
2018-03-27T16:10:48.115Z,12.9
2018-03-27T16:11:48.151Z,12.8
2018-03-27T16:12:48.229Z,12.6
2018-03-27T16:13:48.272Z,12.5
2018-03-27T16:15:48.388Z,12.4
2018-03-27T16:16:48.439Z,12.2
2018-03-27T16:18:48.521Z,12
2018-03-27T16:21:48.608Z,11.9
2018-03-27T16:22:48.682Z,11.8
2018-03-27T16:27:48.908Z,11.6
2018-03-27T16:31:49.013Z,11.5
2018-03-27T16:33:49.088Z,11.4
2018-03-27T16:35:49.160Z,11.3
2018-03-27T16:37:49.265Z,11.1
2018-03-27T16:39:49.336Z,11
2018-03-27T16:41:49.450Z,10.9
2018-03-27T16:43:49.538Z,10.8
2018-03-27T16:44:49.559Z,10.6
2018-03-27T16:46:49.630Z,10.5
2018-03-27T16:47:49.653Z,10.4
2018-03-27T16:49:49.753Z,10.3
2018-03-27T16:51:49.827Z,10.1
2018-03-27T16:52:49.867Z,10
2018-03-27T16:54:49.942Z,9.9
2018-03-27T16:56:50.042Z,9.8
2018-03-27T16:59:50.159Z,9.6
2018-03-27T17:02:50.293Z,9.5
2018-03-27T17:06:50.432Z,9.4
2018-03-27T17:09:50.507Z,9.3
2018-03-27T17:14:50.745Z,9.1
2018-03-27T17:19:50.952Z,9
2018-03-27T17:22:51.104Z,8.9
2018-03-27T17:28:51.475Z,8.6
2018-03-27T17:31:51.576Z,8.5
2018-03-27T17:36:51.735Z,8.4
2018-03-27T17:40:51.875Z,8.3
2018-03-27T17:47:52.196Z,8.1
2018-03-27T17:52:52.405Z,8
2018-03-27T17:58:52.686Z,7.9
2018-03-27T18:06:53.010Z,7.7
2018-03-27T18:14:53.312Z,7.6
2018-03-27T18:24:53.723Z,7.5
2018-03-27T18:38:54.321Z,7.4
2018-03-27T18:48:54.690Z,7.2
2018-03-27T18:49:54.737Z,7.4
2018-03-27T18:50:54.792Z,7.2
2018-03-27T18:58:55.064Z,7.1
2018-03-27T18:59:55.127Z,7.2
2018-03-27T19:01:55.212Z,7.1
2018-03-27T19:10:55.617Z,7
2018-03-27T19:24:56.275Z,6.9
2018-03-27T19:37:56.788Z,6.7
2018-03-27T19:54:57.501Z,6.6
2018-03-27T20:01:57.788Z,6.5
2018-03-27T20:43:59.549Z,6.4
2018-03-27T20:44:59.576Z,6.5
2018-03-27T20:45:59.653Z,6.4
2018-03-27T20:55:00.062Z,6.2
2018-03-27T21:01:01.295Z,6.4
2018-03-27T21:02:00.993Z,6.2
2018-03-27T21:11:01.144Z,6.2
2018-03-27T21:12:01.375Z,6.1
2018-03-27T21:20:01.317Z,6
2018-03-27T21:21:01.369Z,6.1
2018-03-27T21:22:01.695Z,6
2018-03-27T21:23:02.002Z,6.1
2018-03-27T21:24:01.499Z,6
2018-03-27T21:37:02.230Z,5.9
2018-03-27T21:52:02.769Z,5.7
2018-03-27T21:53:02.865Z,5.9
2018-03-27T21:55:02.884Z,5.7
2018-03-27T22:04:03.268Z,5.6
2018-03-27T22:05:03.287Z,5.7
2018-03-27T22:06:03.303Z,5.6
2018-03-27T22:18:03.782Z,5.5
2018-03-27T22:19:03.824Z,5.6
2018-03-27T22:20:03.869Z,5.5
2018-03-27T22:21:03.904Z,5.6
2018-03-27T22:26:04.151Z,5.5
2018-03-27T22:42:04.772Z,5.4
2018-03-27T22:59:05.439Z,5.2
2018-03-27T23:00:05.478Z,5.4
2018-03-27T23:01:05.522Z,5.2
2018-03-27T23:21:06.271Z,5.1
2018-03-27T23:29:20.540Z,5
2018-03-27T23:30:20.578Z,5.1
2018-03-27T23:32:20.736Z,5
